Terminal Aerodrome Forecast
Issued by NWS Northern Indiana

Home | Current Version | Previous Version | Text Only | Print | Product List | Glossary On
Versions: 1 2 3 4 5 6 7 8 9 10 11 12 13 14 15
056
FTUS43 KIWX 271353 AAA
TAFFWA
TAF AMD
KFWA 271353Z 2714/2812 21003KT 6SM BR VCSH SCT006 OVC060
      TEMPO 2714/2716 BKN006
     FM271700 12005KT P6SM VCTS BKN035CB
     FM280000 07004KT P6SM VCSH BKN100
     FM280300 07004KT P6SM BKN070=

USA.gov is the U.S. government's official web portal to all federal, state and local government web resources and services.